Startpagina
METAR-TAF:

METAR-TAF

Vliegvelden :

Internationale Luchthaven Baghdad

Bagdad, Irak

breedte: 33-15-45N, lengte: 44-14-04E, hoogte: 35 m

Actueel weer

Dit bericht is 9 minuten geleden gemaakt, om 15:00 UTC
Wind 13 kt uit het westnoordwesten
Temperatuur 42°C
Vochtigheid 17%
Druk 999 hPa
Zicht 10 km of meer
geen wolken onder 1500 m en geen cumulonimbus

METAR: ORBI 211500Z 29013KT CAVOK 42/12 Q0999 NOSIG

Tijdstip: 18:09 (15:09 UTC)

Verwachting

Dit bericht is 4 uur en het 9 minuten geleden gemaakt, om 11:00 UTC
Verwachting geldig van 21 om 12 UTC tot 22 om 12 UTC
Wind 12 kt uit het westnoordwesten
Zicht: 8000 m

TAF: ORBI 211100Z 2112/2212 30012KT 8000 NSC

Waarnemingen en weersverwachtingen van meer dan 4000 vliegvelden (METAR en TAF).

De beschikbare stations zijn de gele en rode punten op de kaart.

Ga met uw muis naar het station om de naam te zien.

Klik dan om waarnemingen en weersverwachtingen te zien.

kaart wijzigen: klik op de groene knoppen met een zwart kruis om in te zoomen, op de groene knop met een streepje om uit te zoomen of op de groene pijlen voor aangrenzende kaarten.


METAR-TAF: